createdAt,value
2022-10-19T00:00:02.369Z,81.43
2022-10-19T00:02:09.298Z,81.16
2022-10-19T00:04:12.257Z,81.50
2022-10-19T00:06:17.428Z,81.23
2022-10-19T00:08:20.179Z,81.87
2022-10-19T00:10:22.918Z,81.78
2022-10-19T00:12:25.742Z,82.28
2022-10-19T00:14:28.488Z,82.09
2022-10-19T00:16:33.779Z,82.29
2022-10-19T00:18:37.968Z,82.61
2022-10-19T00:20:40.773Z,82.71
2022-10-19T00:22:43.567Z,82.28
2022-10-19T00:24:46.347Z,82.25
2022-10-19T00:26:49.201Z,82.50
2022-10-19T00:28:54.444Z,82.52
2022-10-19T00:30:57.756Z,82.79
2022-10-19T00:33:00.556Z,82.48
2022-10-19T00:35:05.021Z,82.23
2022-10-19T00:37:07.832Z,82.26
2022-10-19T00:39:16.934Z,82.04
2022-10-19T00:41:20.761Z,82.46
2022-10-19T00:43:25.245Z,82.44
2022-10-19T00:45:28.087Z,82.19
2022-10-19T00:47:31.828Z,82.30
2022-10-19T00:49:38.684Z,82.22
2022-10-19T00:51:46.224Z,82.36
2022-10-19T00:53:49.069Z,82.51
2022-10-19T00:55:52.131Z,82.12
2022-10-19T00:57:55.459Z,82.06
2022-10-19T01:00:00.268Z,82.32
2022-10-19T01:02:05.459Z,82.51
2022-10-19T01:04:08.364Z,82.18
2022-10-19T01:06:12.426Z,82.27
2022-10-19T01:08:16.811Z,82.13
2022-10-19T01:10:26.635Z,81.93
2022-10-19T01:12:47.778Z,81.83
2022-10-19T01:15:05.826Z,81.47
2022-10-19T01:17:17.671Z,81.85
2022-10-19T01:19:41.811Z,81.70
2022-10-19T01:21:48.416Z,82.05
2022-10-19T01:24:24.734Z,82.22
2022-10-19T01:26:47.556Z,82.33
2022-10-19T01:29:06.806Z,82.06
2022-10-19T01:31:20.203Z,82.42
2022-10-19T01:33:32.858Z,82.45
2022-10-19T01:35:42.529Z,82.19
2022-10-19T01:37:49.950Z,82.33
2022-10-19T01:39:56.191Z,82.66
2022-10-19T01:42:03.095Z,82.79
2022-10-19T01:44:14.161Z,82.10
2022-10-19T01:46:22.653Z,81.84
2022-10-19T01:48:30.144Z,81.70
2022-10-19T01:50:37.751Z,81.08
2022-10-19T01:52:41.979Z,81.90
2022-10-19T01:54:48.371Z,82.14
2022-10-19T01:56:53.279Z,82.50
2022-10-19T01:58:59.099Z,82.46
2022-10-19T02:01:06.251Z,82.35
2022-10-19T02:03:12.619Z,82.20
2022-10-19T02:05:17.989Z,82.38
2022-10-19T02:07:23.463Z,82.42
2022-10-19T02:09:26.230Z,82.22
2022-10-19T02:11:30.820Z,82.09
2022-10-19T02:13:34.458Z,81.91
2022-10-19T02:15:41.986Z,82.43
2022-10-19T02:17:49.438Z,82.63
2022-10-19T02:19:54.794Z,82.89
2022-10-19T02:21:58.485Z,83.12
2022-10-19T02:24:01.314Z,82.98
2022-10-19T02:26:04.803Z,83.55
2022-10-19T02:28:07.647Z,84.08
2022-10-19T02:30:11.858Z,84.00
2022-10-19T02:32:15.028Z,83.62
2022-10-19T02:34:17.862Z,82.92
2022-10-19T02:36:22.385Z,82.40
2022-10-19T02:38:26.500Z,82.31
2022-10-19T02:40:33.614Z,82.07
2022-10-19T02:42:41.854Z,81.92
2022-10-19T02:44:49.004Z,82.42
2022-10-19T02:46:56.196Z,82.30
2022-10-19T02:48:59.433Z,82.30
2022-10-19T02:51:02.194Z,82.55
2022-10-19T02:53:06.372Z,82.10
2022-10-19T02:55:10.094Z,80.77
2022-10-19T02:57:17.728Z,81.01
2022-10-19T02:59:20.655Z,81.74
2022-10-19T03:01:23.417Z,82.25
2022-10-19T03:03:26.203Z,81.61
2022-10-19T03:05:28.958Z,82.13
2022-10-19T03:07:32.361Z,81.23
2022-10-19T03:09:36.840Z,82.13
2022-10-19T03:11:39.882Z,82.06
2022-10-19T03:13:43.260Z,82.19
2022-10-19T03:15:46.054Z,82.35
2022-10-19T03:17:48.841Z,81.96
2022-10-19T03:19:52.204Z,81.75
2022-10-19T03:21:55.034Z,82.38
2022-10-19T03:23:57.762Z,82.94
2022-10-19T03:26:01.984Z,82.71
2022-10-19T03:28:04.949Z,82.24
2022-10-19T03:30:08.742Z,82.90
2022-10-19T03:32:11.562Z,83.19
2022-10-19T03:34:14.313Z,82.37
2022-10-19T03:36:21.513Z,82.95
2022-10-19T03:38:24.321Z,83.03
2022-10-19T03:40:27.173Z,83.10
2022-10-19T03:42:31.344Z,82.83
2022-10-19T03:44:34.151Z,83.54
2022-10-19T03:46:38.017Z,82.57
2022-10-19T03:48:40.885Z,83.42
2022-10-19T03:50:43.657Z,83.31
2022-10-19T03:52:46.480Z,84.11
2022-10-19T03:54:51.247Z,84.08
2022-10-19T03:56:54.006Z,83.43
2022-10-19T03:59:00.410Z,83.65
2022-10-19T04:01:03.744Z,84.07
2022-10-19T04:03:06.605Z,83.66
2022-10-19T04:05:09.796Z,83.69
2022-10-19T04:07:12.575Z,83.04
2022-10-19T04:09:17.580Z,83.61
2022-10-19T04:11:24.085Z,83.70
2022-10-19T04:13:26.834Z,83.88
2022-10-19T04:15:30.962Z,83.26
2022-10-19T04:17:33.992Z,83.88
2022-10-19T04:19:37.042Z,83.52
2022-10-19T04:21:41.335Z,84.07
2022-10-19T04:23:44.179Z,84.43
2022-10-19T04:25:46.958Z,84.23
2022-10-19T04:27:49.731Z,83.15
2022-10-19T04:29:52.506Z,82.80
2022-10-19T04:31:56.655Z,82.74
2022-10-19T04:33:59.381Z,83.14
2022-10-19T04:36:03.777Z,83.47
2022-10-19T04:38:06.545Z,83.61
2022-10-19T04:40:14.911Z,83.26
2022-10-19T04:42:18.084Z,82.99
2022-10-19T04:44:21.088Z,83.42
2022-10-19T04:46:23.990Z,82.87
2022-10-19T04:48:28.125Z,82.75
2022-10-19T04:50:30.878Z,83.14
2022-10-19T04:52:35.152Z,83.36
2022-10-19T04:54:37.927Z,83.22
2022-10-19T04:56:40.997Z,83.50
2022-10-19T04:58:44.484Z,83.10
2022-10-19T05:00:47.769Z,83.04
2022-10-19T05:02:50.608Z,83.63
2022-10-19T05:04:54.720Z,83.51
2022-10-19T05:06:57.513Z,83.23
2022-10-19T05:09:00.755Z,83.30
2022-10-19T05:11:04.509Z,83.76
2022-10-19T05:13:07.434Z,83.15
2022-10-19T05:15:11.195Z,83.36
2022-10-19T05:17:13.990Z,83.23
2022-10-19T05:19:16.800Z,83.58
2022-10-19T05:21:21.868Z,83.61
2022-10-19T05:23:24.713Z,83.78
2022-10-19T05:25:27.529Z,83.58
2022-10-19T05:27:30.336Z,82.92
2022-10-19T05:29:33.835Z,83.03
2022-10-19T05:31:36.619Z,83.23
2022-10-19T05:33:40.127Z,83.20
2022-10-19T05:35:42.883Z,83.37
2022-10-19T05:37:47.048Z,83.22
2022-10-19T05:39:49.802Z,83.76
2022-10-19T05:41:52.568Z,83.32
2022-10-19T05:43:57.101Z,82.96
2022-10-19T05:46:04.431Z,82.66
2022-10-19T05:48:07.612Z,82.83
2022-10-19T05:50:10.620Z,82.56
2022-10-19T05:52:13.741Z,82.44
2022-10-19T05:54:18.392Z,82.74
2022-10-19T05:56:21.740Z,83.03
2022-10-19T05:58:24.937Z,83.37
2022-10-19T06:00:27.901Z,82.96
2022-10-19T06:02:30.692Z,82.59
2022-10-19T06:04:33.999Z,83.07
2022-10-19T06:06:36.753Z,82.75
2022-10-19T06:08:40.392Z,82.69
2022-10-19T06:10:44.897Z,83.09
2022-10-19T06:12:47.967Z,82.95
2022-10-19T06:14:51.928Z,82.63
2022-10-19T06:16:54.704Z,82.21
2022-10-19T06:18:58.369Z,82.49
2022-10-19T06:21:03.906Z,81.99
2022-10-19T06:23:06.994Z,81.98
2022-10-19T06:25:10.350Z,81.95
2022-10-19T06:27:14.595Z,81.98
2022-10-19T06:29:17.418Z,81.83
2022-10-19T06:31:20.135Z,81.86
2022-10-19T06:33:22.897Z,82.25
2022-10-19T06:35:25.661Z,82.73
2022-10-19T06:37:28.428Z,81.70
2022-10-19T06:39:31.194Z,82.18
2022-10-19T06:41:34.882Z,82.40
2022-10-19T06:43:56.268Z,82.38
2022-10-19T06:45:59.481Z,81.71
2022-10-19T06:48:05.106Z,82.19
2022-10-19T06:50:11.144Z,82.30
2022-10-19T06:52:13.917Z,81.69
2022-10-19T06:54:16.678Z,82.05
2022-10-19T06:56:19.887Z,81.77
2022-10-19T06:58:22.673Z,82.17
2022-10-19T07:00:26.833Z,82.22
2022-10-19T07:02:29.577Z,82.13
2022-10-19T07:04:32.372Z,82.34
2022-10-19T07:06:35.157Z,82.22
2022-10-19T07:08:39.531Z,82.69
2022-10-19T07:10:42.472Z,82.80
2022-10-19T07:12:45.286Z,82.20
2022-10-19T07:14:48.083Z,82.39
2022-10-19T07:16:52.400Z,82.15
2022-10-19T07:18:55.299Z,82.24
2022-10-19T07:20:59.254Z,81.84
2022-10-19T07:23:02.584Z,82.16
2022-10-19T07:25:06.138Z,81.63
2022-10-19T07:27:08.894Z,81.40
2022-10-19T07:29:12.094Z,80.98
2022-10-19T07:31:17.757Z,81.37
2022-10-19T07:33:21.913Z,81.22
2022-10-19T07:35:24.816Z,81.54
2022-10-19T07:37:27.588Z,81.35
2022-10-19T07:39:30.372Z,80.91
2022-10-19T07:41:34.586Z,81.22
2022-10-19T07:43:37.369Z,82.48
2022-10-19T07:45:40.142Z,82.39
2022-10-19T07:47:43.100Z,82.57
2022-10-19T07:49:47.436Z,81.96
2022-10-19T07:51:53.771Z,81.76
2022-10-19T07:53:56.662Z,81.33
2022-10-19T07:56:05.536Z,81.21
2022-10-19T07:58:08.357Z,80.94
2022-10-19T08:00:12.949Z,80.72
2022-10-19T08:02:17.222Z,81.09
2022-10-19T08:06:44.175Z,80.63
2022-10-19T08:08:47.992Z,81.00
2022-10-19T08:10:50.868Z,80.71
2022-10-19T08:12:53.749Z,80.92
2022-10-19T08:14:56.616Z,80.13
2022-10-19T08:16:59.520Z,80.47
2022-10-19T08:19:04.277Z,80.17
2022-10-19T08:21:07.451Z,80.17
2022-10-19T08:23:11.729Z,80.05
2022-10-19T08:25:14.647Z,79.30
2022-10-19T08:27:17.422Z,79.69
2022-10-19T08:29:21.867Z,79.66
2022-10-19T08:31:24.675Z,79.80
2022-10-19T08:33:28.003Z,80.41
2022-10-19T08:35:31.836Z,79.89
2022-10-19T08:37:45.128Z,80.21
2022-10-19T08:39:49.871Z,80.27
2022-10-19T08:42:03.698Z,80.27
2022-10-19T08:44:27.842Z,80.28
2022-10-19T08:46:39.346Z,80.96
2022-10-19T08:48:43.031Z,80.75
2022-10-19T08:50:48.057Z,80.54
2022-10-19T08:52:55.461Z,79.89
2022-10-19T08:55:04.340Z,79.32
2022-10-19T08:57:16.518Z,79.29
2022-10-19T08:59:31.859Z,79.25
2022-10-19T09:01:41.330Z,79.84
2022-10-19T09:03:55.329Z,80.33
2022-10-19T09:06:06.811Z,79.94
2022-10-19T09:08:15.305Z,79.51
2022-10-19T09:10:25.539Z,80.02
2022-10-19T09:12:44.033Z,79.84
2022-10-19T09:14:56.779Z,80.51
2022-10-19T09:17:03.681Z,80.72
2022-10-19T09:19:16.123Z,79.35
2022-10-19T09:21:30.887Z,79.02
2022-10-19T09:23:42.980Z,78.22
2022-10-19T09:25:49.634Z,77.87
2022-10-19T09:28:03.156Z,78.67
2022-10-19T09:30:16.075Z,77.98
2022-10-19T09:32:22.984Z,77.98
2022-10-19T09:34:30.881Z,78.69
2022-10-19T09:36:50.603Z,79.15
2022-10-19T09:38:53.803Z,78.65
2022-10-19T09:40:59.880Z,78.96
2022-10-19T09:43:19.392Z,78.93
2022-10-19T09:45:30.680Z,79.63
2022-10-19T09:47:36.911Z,80.52
2022-10-19T09:49:41.803Z,80.54
2022-10-19T09:51:50.444Z,80.63
2022-10-19T09:53:54.937Z,80.97
2022-10-19T09:56:07.075Z,81.14
2022-10-19T09:58:18.483Z,80.88
2022-10-19T10:00:23.882Z,81.04
2022-10-19T10:02:32.157Z,81.04
2022-10-19T10:04:36.397Z,80.59
2022-10-19T10:06:40.463Z,80.61
2022-10-19T10:08:48.417Z,80.48
2022-10-19T10:11:06.780Z,80.50
2022-10-19T10:13:17.240Z,80.36
2022-10-19T10:15:24.569Z,80.54
2022-10-19T10:17:31.486Z,80.20
2022-10-19T10:21:59.638Z,80.65
2022-10-19T10:24:06.328Z,80.82
2022-10-19T10:26:19.212Z,80.99
2022-10-19T10:28:33.624Z,80.37
2022-10-19T10:30:38.209Z,80.03
2022-10-19T10:32:48.739Z,79.78
2022-10-19T10:35:01.096Z,79.44
2022-10-19T10:37:06.826Z,79.73
2022-10-19T10:39:16.427Z,79.59
2022-10-19T10:41:23.117Z,79.82
2022-10-19T10:43:31.251Z,79.31
2022-10-19T10:45:39.244Z,78.32
2022-10-19T10:47:48.140Z,77.93
2022-10-19T10:49:57.704Z,76.67
2022-10-19T10:52:05.362Z,76.33
2022-10-19T10:54:16.763Z,76.72
2022-10-19T10:56:27.552Z,76.85
2022-10-19T10:58:38.030Z,75.95
2022-10-19T11:00:43.080Z,75.20
2022-10-19T11:02:52.131Z,75.98
2022-10-19T11:05:00.383Z,76.81
2022-10-19T11:07:13.763Z,75.89
2022-10-19T11:09:25.402Z,75.86
2022-10-19T11:11:35.225Z,76.64
2022-10-19T11:13:43.837Z,76.24
2022-10-19T11:15:54.924Z,76.23
2022-10-19T11:18:15.979Z,76.36
2022-10-19T11:20:19.288Z,76.27
2022-10-19T11:22:29.493Z,76.31
2022-10-19T11:24:50.601Z,76.27
2022-10-19T11:27:06.900Z,76.37
2022-10-19T11:29:31.735Z,77.22
2022-10-19T11:31:42.799Z,77.72
2022-10-19T11:33:56.074Z,77.73
2022-10-19T11:36:00.510Z,77.77
2022-10-19T11:38:20.656Z,77.96
2022-10-19T11:40:32.293Z,77.63
2022-10-19T11:42:48.474Z,77.62
2022-10-19T11:45:02.173Z,76.95
2022-10-19T11:47:21.484Z,76.63
2022-10-19T11:49:40.503Z,76.06
2022-10-19T11:51:51.530Z,76.31
2022-10-19T11:54:09.929Z,76.00
2022-10-19T11:56:20.759Z,76.53
2022-10-19T11:58:36.282Z,76.19
2022-10-19T12:00:47.891Z,75.80
2022-10-19T12:03:27.188Z,76.10
2022-10-19T12:05:35.767Z,75.94
2022-10-19T12:08:01.732Z,74.58
2022-10-19T12:10:13.029Z,73.70
2022-10-19T12:12:27.227Z,73.93
2022-10-19T12:14:33.248Z,73.77
2022-10-19T12:16:41.262Z,73.65
2022-10-19T12:18:47.483Z,73.98
2022-10-19T12:20:53.490Z,73.87
2022-10-19T12:22:58.811Z,74.39
2022-10-19T12:25:02.810Z,74.51
2022-10-19T12:27:06.311Z,74.02
2022-10-19T12:29:16.736Z,73.80
2022-10-19T12:31:19.945Z,73.67
2022-10-19T12:33:32.305Z,74.55
2022-10-19T12:35:54.093Z,75.16
2022-10-19T12:38:01.423Z,75.42
2022-10-19T12:40:09.915Z,74.38
2022-10-19T12:42:22.554Z,73.59
2022-10-19T12:44:58.675Z,73.72
2022-10-19T12:47:11.483Z,73.83
2022-10-19T12:49:44.501Z,73.89
2022-10-19T12:51:48.075Z,73.29
2022-10-19T12:53:51.039Z,73.45
2022-10-19T12:56:01.217Z,73.03
2022-10-19T12:58:07.092Z,72.98
2022-10-19T13:00:21.329Z,72.38
2022-10-19T13:02:29.262Z,71.83
2022-10-19T13:04:34.798Z,71.77
2022-10-19T13:06:43.010Z,71.42
2022-10-19T13:08:49.487Z,71.76
2022-10-19T13:11:05.330Z,71.24
2022-10-19T13:13:57.863Z,71.63
2022-10-19T13:16:00.637Z,71.37
2022-10-19T13:18:05.186Z,70.87
2022-10-19T13:20:26.265Z,71.47
2022-10-19T13:22:30.610Z,71.96
2022-10-19T13:24:36.156Z,71.33
2022-10-19T13:26:39.035Z,71.17
2022-10-19T13:28:53.596Z,71.78
2022-10-19T13:31:07.137Z,71.36
2022-10-19T13:33:48.623Z,70.22
2022-10-19T13:36:07.259Z,69.16
2022-10-19T13:38:30.326Z,70.25
2022-10-19T13:40:33.519Z,69.48
2022-10-19T13:42:36.820Z,68.09
2022-10-19T13:44:47.212Z,67.51
2022-10-19T13:47:10.765Z,67.84
2022-10-19T13:49:32.655Z,67.34
2022-10-19T13:51:45.738Z,68.24
2022-10-19T13:53:56.051Z,68.69
2022-10-19T13:56:23.568Z,68.43
2022-10-19T13:59:08.608Z,68.65
2022-10-19T14:01:28.219Z,68.59
2022-10-19T14:03:42.975Z,68.15
2022-10-19T14:05:56.006Z,68.11
2022-10-19T14:08:09.824Z,69.17
2022-10-19T14:10:18.490Z,68.62
2022-10-19T14:12:24.958Z,67.97
2022-10-19T14:14:29.473Z,69.05
2022-10-19T14:16:32.161Z,68.56
2022-10-19T14:18:37.505Z,67.67
2022-10-19T14:20:40.587Z,67.33
2022-10-19T14:22:43.379Z,67.97
2022-10-19T14:24:46.510Z,68.44
2022-10-19T14:26:50.674Z,69.20
2022-10-19T14:28:55.137Z,68.86
2022-10-19T14:31:00.387Z,68.85
2022-10-19T14:33:09.726Z,69.20
2022-10-19T14:35:21.756Z,67.83
2022-10-19T14:37:26.758Z,67.43
2022-10-19T14:39:33.441Z,67.47
2022-10-19T14:41:37.976Z,68.41
2022-10-19T14:43:41.926Z,69.62
2022-10-19T14:45:44.717Z,69.46
2022-10-19T14:47:55.621Z,69.95
2022-10-19T14:49:58.502Z,69.26
2022-10-19T14:52:04.292Z,69.86
2022-10-19T14:54:09.659Z,70.66
2022-10-19T14:56:18.070Z,69.97
2022-10-19T14:58:23.436Z,70.54
2022-10-19T15:00:28.206Z,67.94
2022-10-19T15:02:34.932Z,66.19
2022-10-19T15:04:39.735Z,66.33
2022-10-19T15:06:43.093Z,64.97
2022-10-19T15:08:50.434Z,64.49
2022-10-19T15:10:53.988Z,64.12
2022-10-19T15:13:02.307Z,66.07
2022-10-19T15:15:10.037Z,64.79
2022-10-19T15:17:25.783Z,65.01
2022-10-19T15:19:31.753Z,64.74
2022-10-19T15:21:34.820Z,65.33
2022-10-19T15:23:42.371Z,65.23
2022-10-19T15:25:47.048Z,64.22
2022-10-19T15:27:50.890Z,64.82
2022-10-19T15:29:57.572Z,64.62
2022-10-19T15:32:14.681Z,65.04
2022-10-19T15:34:25.712Z,65.44
2022-10-19T15:36:30.478Z,66.21
2022-10-19T15:38:34.650Z,65.46
2022-10-19T15:40:39.818Z,65.71
2022-10-19T15:42:44.394Z,66.43
2022-10-19T15:44:47.050Z,66.32
2022-10-19T15:47:19.190Z,66.28
2022-10-19T15:49:57.974Z,66.58
2022-10-19T15:52:00.778Z,66.45
2022-10-19T15:54:06.306Z,66.14
2022-10-19T15:56:12.404Z,66.28
2022-10-19T15:58:18.192Z,66.90
2022-10-19T16:00:21.945Z,66.67
2022-10-19T16:02:25.247Z,66.61
2022-10-19T16:04:27.951Z,66.90
2022-10-19T16:06:34.607Z,66.61
2022-10-19T16:08:37.347Z,67.60
2022-10-19T16:10:40.435Z,67.48
2022-10-19T16:12:43.431Z,67.32
2022-10-19T16:14:46.230Z,67.27
2022-10-19T16:16:50.127Z,67.13
2022-10-19T16:18:53.611Z,66.46
2022-10-19T16:20:56.527Z,67.52
2022-10-19T16:23:00.955Z,67.79
2022-10-19T16:25:03.728Z,68.05
2022-10-19T16:27:07.802Z,68.15
2022-10-19T16:29:10.605Z,68.42
2022-10-19T16:31:13.392Z,68.75
2022-10-19T16:33:16.337Z,68.58
2022-10-19T16:35:19.127Z,68.78
2022-10-19T16:37:21.928Z,68.49
2022-10-19T16:39:26.143Z,68.68
2022-10-19T16:41:29.042Z,68.78
2022-10-19T16:43:32.270Z,68.90
2022-10-19T16:45:35.432Z,69.44
2022-10-19T16:47:38.245Z,68.68
2022-10-19T16:49:41.131Z,68.43
2022-10-19T16:51:43.914Z,69.04
2022-10-19T16:53:46.848Z,68.50
2022-10-19T16:55:50.892Z,69.05
2022-10-19T16:57:57.595Z,69.19
2022-10-19T17:00:00.398Z,69.40
2022-10-19T17:02:03.366Z,69.22
2022-10-19T17:04:06.486Z,69.32
2022-10-19T17:06:15.235Z,70.00
2022-10-19T17:08:18.092Z,70.35
2022-10-19T17:10:20.890Z,69.65
2022-10-19T17:12:25.059Z,69.52
2022-10-19T17:14:27.959Z,69.66
2022-10-19T17:16:32.800Z,70.02
2022-10-19T17:18:36.467Z,70.51
2022-10-19T17:20:39.928Z,70.19
2022-10-19T17:22:42.745Z,70.50
2022-10-19T17:24:47.240Z,70.68
2022-10-19T17:26:51.183Z,70.39
2022-10-19T17:28:56.143Z,70.54
2022-10-19T17:31:03.942Z,70.83
2022-10-19T17:33:06.745Z,70.87
2022-10-19T17:35:09.648Z,70.56
2022-10-19T17:37:12.470Z,70.52
2022-10-19T17:39:18.058Z,71.00
2022-10-19T17:41:22.087Z,71.12
2022-10-19T17:43:24.872Z,70.86
2022-10-19T17:45:29.357Z,70.96
2022-10-19T17:47:35.705Z,71.17
2022-10-19T17:49:38.877Z,70.97
2022-10-19T17:51:42.296Z,70.67
2022-10-19T17:53:46.982Z,70.95
2022-10-19T17:55:49.558Z,71.54
2022-10-19T17:57:52.288Z,71.85
2022-10-19T17:59:55.227Z,71.64
2022-10-19T18:01:59.465Z,71.37
2022-10-19T18:04:02.363Z,71.60
2022-10-19T18:06:10.730Z,71.74
2022-10-19T18:08:13.959Z,72.28
2022-10-19T18:10:16.863Z,72.22
2022-10-19T18:12:19.628Z,71.94
2022-10-19T18:14:22.495Z,71.82
2022-10-19T18:16:27.782Z,71.79
2022-10-19T18:18:33.386Z,71.76
2022-10-19T18:20:39.862Z,71.62
2022-10-19T18:24:50.433Z,71.76
2022-10-19T18:26:53.360Z,71.14
2022-10-19T18:28:57.020Z,71.17
2022-10-19T18:31:06.219Z,71.44
2022-10-19T18:33:09.646Z,72.06
2022-10-19T18:35:13.772Z,71.36
2022-10-19T18:37:16.549Z,71.87
2022-10-19T18:39:19.681Z,71.31
2022-10-19T18:41:22.849Z,71.36
2022-10-19T18:43:25.695Z,71.56
2022-10-19T18:45:28.451Z,71.20
2022-10-19T18:47:31.943Z,70.90
2022-10-19T18:49:35.033Z,71.21
2022-10-19T18:51:39.527Z,71.62
2022-10-19T18:53:43.010Z,71.49
2022-10-19T18:55:46.054Z,71.86
2022-10-19T18:57:48.880Z,72.39
2022-10-19T18:59:51.635Z,71.95
2022-10-19T19:01:54.501Z,72.00
2022-10-19T19:04:00.588Z,72.25
2022-10-19T19:06:04.971Z,72.45
2022-10-19T19:08:09.118Z,72.85
2022-10-19T19:10:12.970Z,73.47
2022-10-19T19:12:15.970Z,73.70
2022-10-19T19:14:21.794Z,73.56
2022-10-19T19:16:25.488Z,73.27
2022-10-19T19:18:29.135Z,74.10
2022-10-19T19:20:31.984Z,73.94
2022-10-19T19:22:35.541Z,74.44
2022-10-19T19:24:42.889Z,74.52
2022-10-19T19:26:48.356Z,74.04
2022-10-19T19:28:51.861Z,74.10
2022-10-19T19:30:54.833Z,74.14
2022-10-19T19:32:57.893Z,74.33
2022-10-19T19:35:00.793Z,74.67
2022-10-19T19:37:07.248Z,75.27
2022-10-19T19:39:11.606Z,75.47
2022-10-19T19:41:16.577Z,75.32
2022-10-19T19:43:20.012Z,74.68
2022-10-19T19:45:22.776Z,74.73
2022-10-19T19:47:25.711Z,75.12
2022-10-19T19:49:28.820Z,75.47
2022-10-19T19:51:32.931Z,75.17
2022-10-19T19:53:35.684Z,74.59
2022-10-19T19:55:39.172Z,75.13
2022-10-19T19:57:43.542Z,75.59
2022-10-19T19:59:46.340Z,75.65
2022-10-19T20:01:51.987Z,75.84
2022-10-19T20:03:54.998Z,74.77
2022-10-19T20:06:02.392Z,75.70
2022-10-19T20:08:06.007Z,75.29
2022-10-19T20:10:10.172Z,75.11
2022-10-19T20:12:13.361Z,75.64
2022-10-19T20:14:18.672Z,75.07
2022-10-19T20:16:26.629Z,75.15
2022-10-19T20:18:31.950Z,75.45
2022-10-19T20:20:34.754Z,75.86
2022-10-19T20:22:38.154Z,75.70
2022-10-19T20:24:40.987Z,74.83
2022-10-19T20:26:43.816Z,75.91
2022-10-19T20:28:46.997Z,75.26
2022-10-19T20:31:00.183Z,75.21
2022-10-19T20:33:03.083Z,75.50
2022-10-19T20:35:07.332Z,75.27
2022-10-19T20:37:11.709Z,75.98
2022-10-19T20:39:14.620Z,75.59
2022-10-19T20:41:18.640Z,76.25
2022-10-19T20:43:21.627Z,75.52
2022-10-19T20:45:26.801Z,75.48
2022-10-19T20:47:31.076Z,75.93
2022-10-19T20:49:33.894Z,76.79
2022-10-19T20:51:38.249Z,75.91
2022-10-19T20:53:41.721Z,76.40
2022-10-19T20:55:44.515Z,76.73
2022-10-19T20:57:47.278Z,76.12
2022-10-19T20:59:50.279Z,75.67
2022-10-19T21:01:54.725Z,75.87
2022-10-19T21:04:01.314Z,76.31
2022-10-19T21:06:05.913Z,75.97
2022-10-19T21:08:09.498Z,76.57
2022-10-19T21:10:12.352Z,75.96
2022-10-19T21:12:15.247Z,76.37
2022-10-19T21:14:23.755Z,76.22
2022-10-19T21:16:33.561Z,76.74
2022-10-19T21:18:36.374Z,77.02
2022-10-19T21:20:40.490Z,76.29
2022-10-19T21:22:43.532Z,77.19
2022-10-19T21:24:46.559Z,76.54
2022-10-19T21:28:57.893Z,76.80
2022-10-19T21:31:03.676Z,77.14
2022-10-19T21:33:06.436Z,77.43
2022-10-19T21:35:09.405Z,76.94
2022-10-19T21:37:13.537Z,76.88
2022-10-19T21:39:16.762Z,76.76
2022-10-19T21:41:23.873Z,76.91
2022-10-19T21:43:30.024Z,77.02
2022-10-19T21:45:32.760Z,76.92
2022-10-19T21:47:35.910Z,76.64
2022-10-19T21:49:38.847Z,76.57
2022-10-19T21:51:44.594Z,76.18
2022-10-19T21:53:48.746Z,77.28
2022-10-19T21:55:51.936Z,76.67
2022-10-19T21:57:54.858Z,76.56
2022-10-19T21:59:57.675Z,76.25
2022-10-19T22:02:00.515Z,76.90
2022-10-19T22:04:05.575Z,76.70
2022-10-19T22:06:08.923Z,77.33
2022-10-19T22:08:11.671Z,76.74
2022-10-19T22:10:15.795Z,77.02
2022-10-19T22:12:18.558Z,76.64
2022-10-19T22:14:21.394Z,77.03
2022-10-19T22:16:25.538Z,76.98
2022-10-19T22:18:28.282Z,77.26
2022-10-19T22:20:31.063Z,77.34
2022-10-19T22:22:34.160Z,77.64
2022-10-19T22:24:37.182Z,77.64
2022-10-19T22:26:43.905Z,76.85
2022-10-19T22:28:46.709Z,77.61
2022-10-19T22:30:54.541Z,76.88
2022-10-19T22:32:57.424Z,78.02
2022-10-19T22:35:00.273Z,77.85
2022-10-19T22:37:03.219Z,77.77
2022-10-19T22:39:06.707Z,77.43
2022-10-19T22:41:09.748Z,76.85
2022-10-19T22:43:13.900Z,77.59
2022-10-19T22:45:16.883Z,76.90
2022-10-19T22:47:19.779Z,77.25
2022-10-19T22:49:22.587Z,77.11
2022-10-19T22:51:25.393Z,76.51
2022-10-19T22:53:28.182Z,77.10
2022-10-19T22:55:31.009Z,77.66
2022-10-19T22:57:33.771Z,77.45
2022-10-19T22:59:37.972Z,77.05
2022-10-19T23:01:40.799Z,77.48
2022-10-19T23:03:44.219Z,77.32
2022-10-19T23:05:46.983Z,77.82
2022-10-19T23:07:49.719Z,77.25
2022-10-19T23:09:52.513Z,77.22
2022-10-19T23:11:55.317Z,77.57
2022-10-19T23:13:58.086Z,77.57
2022-10-19T23:16:02.531Z,77.23
2022-10-19T23:18:05.324Z,77.54
2022-10-19T23:20:09.222Z,77.32
2022-10-19T23:22:11.953Z,77.63
2022-10-19T23:24:14.768Z,77.05
2022-10-19T23:26:19.444Z,76.79
2022-10-19T23:28:22.038Z,76.80
2022-10-19T23:30:24.820Z,76.86
2022-10-19T23:32:28.948Z,76.92
2022-10-19T23:34:31.770Z,77.03
2022-10-19T23:36:34.574Z,77.06
2022-10-19T23:38:37.468Z,77.11
2022-10-19T23:40:40.224Z,77.48
2022-10-19T23:42:43.031Z,77.42
2022-10-19T23:44:46.325Z,77.43
2022-10-19T23:46:49.082Z,77.69
2022-10-19T23:48:53.165Z,77.42
2022-10-19T23:51:00.571Z,77.92
2022-10-19T23:53:03.603Z,77.93
2022-10-19T23:55:07.582Z,77.86
2022-10-19T23:57:10.356Z,77.65
2022-10-19T23:59:13.108Z,77.24
